Aeroporto :
LOGIN :

Iscrizione | Disclaimer

   EN    FR    IT 

 










Sommario :    VFR   VFR Marginale   IFR   IFR Intensivo   IFR Molto Intensivo
Visibilità : 
Base nubi : 
>= 8 km
>= 3000ft
5 / 8 km
1000 / 3000 ft
1500m / 5 km
500 / 1000 ft
800 / 1500m
200 / 500 ft
< 800m
< 200 ft
Simboli :   Temporali  Nebbia  Neve Forte  Precipitazioni Forti  Vento > 20 kt
SIGMETs :   Varie  Temporali  Ghiacco  Turbolenza  Onda orograficha  Ceneri Vulcaniche






- Altitudine del aeroporto : 215 ft
- Codice IATA : ABZ


EGPD - Aberdeen / Dyce

ULTIMO METAR :
  • 160650Z AUTO VRB02KT 9999 SCT018/// BKN025/// BKN033/// //////TCU 01/01 Q0987 RERA TEMPO SHRA

METARs OBSOLETI :
  • 160620Z AUTO 33004KT 9999 -RA SCT018/// SCT026/// BKN036/// //////TCU 00/M00 Q0987 TEMPO SHRA BKN014
  • 160550Z AUTO VRB01KT 5000 -RA SCT016/// BKN025/// //////TCU M00/M01 Q0987 TEMPO SHRA
  • 160520Z AUTO VRB01KT 9999 FEW022/// BKN030/// //////TCU 00/M01 Q0987
  • 160450Z AUTO VRB01KT 9999 FEW022 SCT029 M00/M01 Q0987 NOSIG
  • 160420Z AUTO VRB02KT 9999 SCT022 BKN039 01/M01 Q0987

TAF TAF EGPD
Valido dal 16 a 06 ore il 17 a 06 ore UTC


160459Z 1606/1706 20009KT 9999 FEW035
PROB30
TEMPO 1606/1609 6000 SHRA BKN012
PROB30
TEMPO 1616/1624 6000 SHRA BKN012
PROB40
TEMPO 1619/1702 21015G25KT



MetMap, La meteo Aeronautica in un colpo d'occhio ! - Copyright ORBIFLY Dicembre 2007 - Disclaimer

ORBIFLY MET'MAP TEAM :

Programmazione e sviluppo : Alexandra Zaïnal
Concezione : Baudouin d'Aumeries
Aiuto per la programmazione : Marc-Olivier Méhu
Supporto tecnico e logistico : Manuel Goepfert
Aiuto per la traduzione : Arnaldo La Scala

Contatto : metmap@orbifly.com




FONTI E CREDITI :

   NOAA